Time;durP1;ratioP1;P1;durP2;ratioP2;P2;SDS_P1;SDS_P2;PMS_P1;PMS_P2;Temp;Humidity;BMP_temperature;BMP_pressure;BME280_temperature;BME280_humidity;BME280_pressure;Samples;Min_cycle;Max_cycle;Signal;HPM_P1;HPM_P2
2022/10/04 00:00:34;;;;;;;0.68;0.68;;;21.30;67.80;;;;;;5042582;28;20463;-41
2022/10/04 00:03:24;;;;;;;0.68;0.68;;;21.20;67.60;;;;;;5043306;28;20045;-43
2022/10/04 00:05:52;;;;;;;0.73;0.60;;;21.20;67.60;;;;;;5043544;28;20068;-49
2022/10/04 00:08:26;;;;;;;0.73;0.73;;;21.20;67.60;;;;;;5041725;28;20099;-42
2022/10/04 00:11:17;;;;;;;;;;;21.20;67.70;;;;;;5039109;28;20506;-33
2022/10/04 00:13:54;;;;;;;0.63;0.63;;;21.20;67.60;;;;;;5037089;28;20476;-38
2022/10/04 00:16:22;;;;;;;0.85;0.85;;;21.20;67.60;;;;;;5051191;28;20136;-55
2022/10/04 00:18:48;;;;;;;0.80;0.80;;;21.20;67.60;;;;;;5042382;28;20044;-51
2022/10/04 00:21:13;;;;;;;0.70;0.70;;;21.20;67.60;;;;;;5035453;28;20110;-47
2022/10/04 00:23:41;;;;;;;0.80;0.80;;;21.20;67.60;;;;;;5035437;28;20044;-45
2022/10/04 00:26:26;;;;;;;0.90;0.90;;;21.20;68.30;;;;;;5042836;28;20038;-51
2022/10/04 00:28:54;;;;;;;0.70;0.70;;;21.30;67.40;;;;;;5052897;28;20033;-45
2022/10/04 00:31:23;;;;;;;0.95;0.60;;;21.30;67.50;;;;;;5053136;28;20060;-48
2022/10/04 00:34:15;;;;;;;0.63;0.63;;;21.20;67.50;;;;;;5041542;28;20038;-50
2022/10/04 00:36:49;;;;;;;0.73;0.73;;;21.20;67.40;;;;;;5056520;28;20472;-47
2022/10/04 00:39:17;;;;;;;0.60;0.60;;;21.20;67.50;;;;;;5038860;28;20041;-45
2022/10/04 00:41:48;;;;;;;0.40;0.40;;;21.20;67.50;;;;;;5046184;28;20419;-53
2022/10/04 00:44:35;;;;;;;0.52;0.52;;;21.20;67.40;;;;;;5038892;28;20782;-46
2022/10/04 00:47:11;;;;;;;0.50;0.50;;;21.20;67.40;;;;;;5057775;28;20074;-54
2022/10/04 00:49:38;;;;;;;;;;;21.20;67.30;;;;;;5062611;28;20060;-57
2022/10/04 00:52:12;;;;;;;0.55;0.55;;;21.30;67.30;;;;;;5041634;28;19924;-50
2022/10/04 00:54:40;;;;;;;0.60;0.60;;;21.20;67.30;;;;;;5053659;28;20044;-54
2022/10/04 00:57:09;;;;;;;0.60;0.60;;;21.20;67.40;;;;;;5045889;28;20045;-49
2022/10/04 00:59:37;;;;;;;0.40;0.40;;;21.20;67.40;;;;;;5045088;28;20067;-60
2022/10/04 01:02:18;;;;;;;0.43;0.43;;;21.20;67.40;;;;;;5045555;28;20072;-51
2022/10/04 01:05:03;;;;;;;0.50;0.50;;;21.20;67.30;;;;;;5071954;28;20080;-48
2022/10/04 01:07:33;;;;;;;0.82;0.40;;;21.20;67.30;;;;;;5054501;28;20052;-55
2022/10/04 01:10:02;;;;;;;0.60;0.60;;;21.20;67.30;;;;;;5050972;28;20098;-54
2022/10/04 01:12:50;;;;;;;0.50;0.50;;;21.20;67.30;;;;;;5075999;28;20048;-54
2022/10/04 01:15:41;;;;;;;0.50;0.50;;;21.20;67.20;;;;;;5042168;28;20773;-58
2022/10/04 01:18:28;;;;;;;0.63;0.63;;;21.30;67.10;;;;;;5036615;28;20471;-41
2022/10/04 01:21:18;;;;;;;0.80;0.60;;;21.30;67.10;;;;;;5038882;28;20114;-47
2022/10/04 01:23:44;;;;;;;0.60;0.60;;;21.30;67.20;;;;;;5035738;28;20057;-50
2022/10/04 01:26:25;;;;;;;0.40;0.40;;;21.20;67.00;;;;;;5032705;28;20046;-52
2022/10/04 01:28:52;;;;;;;0.60;0.60;;;21.20;67.10;;;;;;5034667;28;20104;-44
2022/10/04 01:31:17;;;;;;;0.80;0.80;;;21.30;67.10;;;;;;5031815;28;20170;-54
2022/10/04 01:33:43;;;;;;;0.50;0.50;;;21.30;67.00;;;;;;5035570;28;20589;-56
2022/10/04 01:36:08;;;;;;;0.40;0.40;;;21.30;67.70;;;;;;5068017;28;20040;-53
2022/10/04 01:38:34;;;;;;;0.43;0.43;;;21.30;66.90;;;;;;5056546;28;20135;-45
2022/10/04 01:41:00;;;;;;;0.70;0.70;;;21.30;66.90;;;;;;5050278;28;20705;-45
2022/10/04 01:43:28;;;;;;;0.38;0.38;;;21.20;67.00;;;;;;5055635;28;20040;-52
2022/10/04 01:45:57;;;;;;;0.68;0.38;;;21.30;67.10;;;;;;5063954;28;20044;-59
2022/10/04 01:48:24;;;;;;;0.60;0.60;;;21.30;66.90;;;;;;5024956;28;20504;-50
2022/10/04 01:51:02;;;;;;;0.50;0.50;;;21.30;67.10;;;;;;5015809;28;20068;-38
2022/10/04 01:53:33;;;;;;;0.47;0.47;;;21.20;67.00;;;;;;5048643;28;20064;-54
2022/10/04 01:56:03;;;;;;;0.40;0.40;;;21.20;67.00;;;;;;5051892;28;20571;-48
2022/10/04 01:58:32;;;;;;;0.30;0.30;;;21.20;66.90;;;;;;5066240;28;20041;-49
2022/10/04 02:01:14;;;;;;;0.32;0.32;;;21.20;66.90;;;;;;5053555;28;20048;-47
2022/10/04 02:03:49;;;;;;;0.50;0.50;;;21.20;67.00;;;;;;5030853;28;20613;-45
2022/10/04 02:06:15;;;;;;;0.40;0.40;;;21.20;67.40;;;;;;5034656;28;20079;-58
2022/10/04 02:08:45;;;;;;;0.40;0.40;;;21.20;67.20;;;;;;5038070;28;20045;-53
2022/10/04 02:11:15;;;;;;;0.22;0.22;;;21.10;67.20;;;;;;5062189;28;20276;-39
2022/10/04 02:13:41;;;;;;;0.38;0.38;;;21.10;67.30;;;;;;5062930;28;20044;-59
2022/10/04 02:16:10;;;;;;;0.40;0.40;;;21.20;67.30;;;;;;5066679;28;20429;-53
2022/10/04 02:18:36;;;;;;;0.50;0.50;;;21.20;67.10;;;;;;5050320;28;20075;-58
2022/10/04 02:21:03;;;;;;;1.40;0.50;;;21.20;67.10;;;;;;5049600;28;20139;-46
2022/10/04 02:23:29;;;;;;;0.30;0.30;;;21.10;67.20;;;;;;5061708;28;20049;-48
2022/10/04 02:25:54;;;;;;;0.40;0.40;;;21.10;67.20;;;;;;5067875;28;20388;-55
2022/10/04 02:28:20;;;;;;;0.32;0.32;;;21.20;67.30;;;;;;5065876;28;20142;-45
2022/10/04 02:33:41;;;;;;;0.70;0.60;;;21.20;67.00;;;;;;5051708;28;20140;-42
2022/10/04 02:36:08;;;;;;;0.40;0.40;;;21.10;67.20;;;;;;5049120;28;20036;-43
2022/10/04 02:38:35;;;;;;;0.47;0.47;;;21.20;67.20;;;;;;5066884;28;20051;-51
2022/10/04 02:41:21;;;;;;;0.47;0.47;;;21.20;67.20;;;;;;5066506;28;20036;-48
2022/10/04 02:44:02;;;;;;;0.30;0.30;;;21.10;67.20;;;;;;5067565;28;20056;-42
2022/10/04 02:46:32;;;;;;;0.30;0.30;;;21.10;67.20;;;;;;5064932;28;20192;-45
2022/10/04 02:48:59;;;;;;;0.30;0.30;;;21.10;67.20;;;;;;5049990;28;20120;-44
2022/10/04 02:51:32;;;;;;;0.43;0.43;;;21.10;68.00;;;;;;5046537;28;20525;-46
2022/10/04 02:54:12;;;;;;;0.40;0.40;;;21.10;67.10;;;;;;5065012;28;20086;-42
2022/10/04 02:56:38;;;;;;;0.30;0.30;;;21.10;67.00;;;;;;5067035;28;20129;-41
2022/10/04 02:59:05;;;;;;;0.30;0.30;;;21.10;67.00;;;;;;5061891;28;20044;-41
2022/10/04 03:01:57;;;;;;;0.57;0.30;;;21.10;67.00;;;;;;5083114;28;20255;-42
2022/10/04 03:04:25;;;;;;;0.40;0.40;;;21.20;67.00;;;;;;5060519;28;20529;-42
2022/10/04 03:06:50;;;;;;;0.40;0.40;;;21.20;66.90;;;;;;5066867;28;20044;-42
2022/10/04 03:09:16;;;;;;;0.17;0.17;;;21.10;66.90;;;;;;5065580;28;20411;-42
2022/10/04 03:11:42;;;;;;;0.30;0.30;;;21.10;67.00;;;;;;5066158;28;20136;-42
2022/10/04 03:14:34;;;;;;;0.25;0.22;;;21.10;66.90;;;;;;5059966;28;20519;-41
2022/10/04 03:17:00;;;;;;;0.30;0.30;;;21.10;66.90;;;;;;5062718;28;20547;-42
2022/10/04 03:19:27;;;;;;;0.30;0.30;;;21.10;67.10;;;;;;5048945;28;20151;-42
2022/10/04 03:21:54;;;;;;;0.32;0.32;;;21.10;67.00;;;;;;5065251;28;20045;-42
2022/10/04 03:24:23;;;;;;;0.40;0.40;;;21.10;67.00;;;;;;5045638;28;20036;-41
2022/10/04 03:26:54;;;;;;;0.20;0.20;;;21.10;67.00;;;;;;5066646;28;20040;-42
2022/10/04 03:29:21;;;;;;;0.20;0.20;;;21.10;67.10;;;;;;5079564;28;20119;-41
2022/10/04 03:31:48;;;;;;;0.30;0.30;;;21.10;67.00;;;;;;5064513;28;20036;-42
2022/10/04 03:34:18;;;;;;;0.30;0.30;;;21.10;67.00;;;;;;5044098;28;20044;-42
2022/10/04 03:36:45;;;;;;;0.32;0.32;;;21.10;67.10;;;;;;5047951;28;20063;-42
2022/10/04 03:39:11;;;;;;;0.25;0.25;;;21.10;67.00;;;;;;5048706;28;20453;-42
2022/10/04 03:41:39;;;;;;;0.52;0.40;;;21.10;67.00;;;;;;5047691;28;20036;-42
2022/10/04 03:44:06;;;;;;;0.30;0.30;;;21.10;67.10;;;;;;5076590;28;20414;-40
2022/10/04 03:46:31;;;;;;;0.35;0.35;;;21.10;67.10;;;;;;5047016;28;22394;-42
2022/10/04 03:48:57;;;;;;;0.40;0.40;;;21.00;67.10;;;;;;5061860;28;20502;-41
2022/10/04 03:51:23;;;;;;;0.30;0.30;;;21.10;67.00;;;;;;5063010;28;20433;-42
2022/10/04 03:53:53;;;;;;;0.22;0.22;;;21.10;66.90;;;;;;5064854;28;20040;-42
2022/10/04 03:56:27;;;;;;;0.30;0.30;;;21.00;67.40;;;;;;5048028;28;20746;-42
2022/10/04 03:58:53;;;;;;;0.20;0.20;;;21.10;67.00;;;;;;5062153;28;20058;-42
2022/10/04 04:01:37;;;;;;;0.35;0.30;;;21.10;67.00;;;;;;5066340;28;20074;-42
2022/10/04 04:04:29;;;;;;;0.20;0.20;;;21.10;67.00;;;;;;5077135;28;20041;-42
2022/10/04 04:07:06;;;;;;;0.68;0.22;;;21.10;66.90;;;;;;5046504;28;20040;-42
2022/10/04 04:09:31;;;;;;;0.25;0.25;;;21.00;66.90;;;;;;5028930;28;20045;-42
2022/10/04 04:11:57;;;;;;;0.20;0.20;;;21.00;67.00;;;;;;5044487;28;20093;-42
2022/10/04 04:14:24;;;;;;;0.35;0.30;;;21.00;67.00;;;;;;5061200;28;20036;-42
2022/10/04 04:16:51;;;;;;;0.30;0.30;;;21.10;67.00;;;;;;5075706;28;20132;-41
2022/10/04 04:19:17;;;;;;;0.20;0.20;;;21.00;67.10;;;;;;5036958;28;20123;-42
2022/10/04 04:21:43;;;;;;;0.20;0.20;;;21.10;67.00;;;;;;5050587;28;20047;-41
2022/10/04 04:24:24;;;;;;;0.30;0.30;;;21.00;67.00;;;;;;5079336;28;20048;-42
2022/10/04 04:26:55;;;;;;;0.30;0.30;;;21.00;67.00;;;;;;5064857;28;20041;-42
2022/10/04 04:29:32;;;;;;;0.30;0.30;;;21.00;67.00;;;;;;5043978;28;20570;-42
2022/10/04 04:32:05;;;;;;;0.30;0.30;;;21.00;67.10;;;;;;5075467;28;20076;-42
2022/10/04 04:34:33;;;;;;;0.20;0.20;;;21.00;66.90;;;;;;5040634;28;21930;-42
2022/10/04 04:37:02;;;;;;;0.63;0.20;;;21.00;67.00;;;;;;5043600;28;20049;-42
2022/10/04 04:39:39;;;;;;;0.30;0.30;;;21.00;66.90;;;;;;5041750;28;20052;-42
2022/10/04 04:42:09;;;;;;;0.30;0.30;;;21.10;66.90;;;;;;5045125;28;20048;-41
2022/10/04 04:44:36;;;;;;;0.30;0.30;;;21.00;67.20;;;;;;5060515;28;20083;-41
2022/10/04 04:47:05;;;;;;;0.13;0.13;;;21.00;67.00;;;;;;5038908;28;20044;-42
2022/10/04 04:49:31;;;;;;;0.45;0.30;;;21.00;67.10;;;;;;5060650;28;20132;-41
2022/10/04 04:51:57;;;;;;;0.20;0.20;;;21.10;67.10;;;;;;5072628;28;20037;-42
2022/10/04 04:54:23;;;;;;;0.20;0.20;;;21.00;67.00;;;;;;5055439;28;20403;-42
2022/10/04 04:56:50;;;;;;;0.40;0.25;;;21.00;67.00;;;;;;5068725;28;20102;-42
2022/10/04 04:59:16;;;;;;;0.22;0.22;;;21.00;67.00;;;;;;5052276;28;20045;-42
2022/10/04 05:01:43;;;;;;;0.57;0.28;;;21.00;66.90;;;;;;5064304;28;20040;-42
2022/10/04 05:04:08;;;;;;;0.20;0.20;;;21.00;67.10;;;;;;5060221;28;20051;-37
2022/10/04 05:06:36;;;;;;;0.30;0.30;;;21.00;67.10;;;;;;5060343;28;20041;-42
2022/10/04 05:09:03;;;;;;;0.30;0.30;;;21.10;67.00;;;;;;5040156;28;20075;-42
2022/10/04 05:11:30;;;;;;;0.43;0.30;;;21.10;67.50;;;;;;5045773;28;20079;-42
2022/10/04 05:13:59;;;;;;;2.30;0.20;;;21.10;67.60;;;;;;5059598;28;20446;-42
2022/10/04 05:16:48;;;;;;;1.08;0.20;;;21.10;68.80;;;;;;4715029;28;10000430;-42
2022/10/04 05:19:35;;;;;;;0.90;0.38;;;21.10;68.30;;;;;;5053514;28;20044;-41
2022/10/04 05:22:05;;;;;;;0.30;0.30;;;21.10;68.80;;;;;;5061415;28;20060;-41
2022/10/04 05:24:33;;;;;;;0.40;0.38;;;21.10;68.70;;;;;;5056670;28;20135;-42
2022/10/04 05:27:15;;;;;;;0.40;0.40;;;21.10;68.50;;;;;;5033540;28;20059;-42
2022/10/04 05:29:54;;;;;;;1.65;0.30;;;21.10;68.50;;;;;;5050561;28;20075;-42
2022/10/04 05:32:33;;;;;;;0.30;0.30;;;21.10;68.70;;;;;;5030507;28;20052;-42
2022/10/04 05:34:59;;;;;;;1.45;0.47;;;21.10;69.10;;;;;;5059164;28;20943;-43
2022/10/04 05:37:54;;;;;;;2.40;0.50;;;21.10;70.10;;;;;;5056243;28;20518;-42
2022/10/04 05:40:40;;;;;;;1.33;0.40;;;21.20;69.10;;;;;;5055411;28;20049;-43
2022/10/04 05:43:43;;;;;;;0.90;0.32;;;21.20;68.90;;;;;;5066698;28;20131;-43
2022/10/04 05:46:21;;;;;;;0.35;0.30;;;21.30;68.50;;;;;;5042316;28;21040;-43
2022/10/04 05:49:10;;;;;;;0.30;0.30;;;21.20;69.10;;;;;;5047964;28;20052;-44
2022/10/04 05:51:52;;;;;;;0.70;0.40;;;21.10;69.30;;;;;;5035435;28;20041;-43
2022/10/04 05:54:25;;;;;;;0.63;0.45;;;21.20;69.40;;;;;;5051872;28;20029;-42
2022/10/04 05:57:09;;;;;;;0.83;0.40;;;21.20;69.70;;;;;;5078359;28;20044;-43
2022/10/04 05:59:58;;;;;;;1.52;0.35;;;21.20;69.30;;;;;;5057370;28;20339;-43
2022/10/04 06:02:45;;;;;;;0.50;0.40;;;21.20;69.10;;;;;;5048353;28;20048;-45
2022/10/04 06:05:48;;;;;;;0.73;0.50;;;21.20;69.10;;;;;;5046295;28;20430;-43
2022/10/04 06:08:23;;;;;;;2.60;0.70;;;21.30;68.90;;;;;;5039478;28;20049;-42
2022/10/04 06:11:08;;;;;;;0.73;0.40;;;21.20;68.80;;;;;;5040838;28;20065;-43
2022/10/04 06:13:51;;;;;;;0.60;0.40;;;21.20;68.60;;;;;;5053792;28;20051;-44
2022/10/04 06:16:47;;;;;;;0.93;0.40;;;21.20;68.50;;;;;;5071337;28;20052;-43
2022/10/04 06:19:32;;;;;;;2.08;0.52;;;21.20;68.40;;;;;;5064488;28;20037;-42
2022/10/04 06:22:05;;;;;;;2.10;0.60;;;21.20;68.30;;;;;;5069717;28;20041;-43
2022/10/04 06:24:33;;;;;;;2.63;0.70;;;21.30;68.20;;;;;;5054854;28;20037;-44
2022/10/04 06:27:04;;;;;;;1.15;0.50;;;21.30;68.20;;;;;;5048208;28;20045;-43
2022/10/04 06:29:32;;;;;;;1.88;0.52;;;21.30;68.20;;;;;;5064192;28;20032;-43
2022/10/04 06:31:58;;;;;;;0.63;0.50;;;21.20;68.10;;;;;;5070663;28;20072;-44
2022/10/04 06:34:37;;;;;;;0.95;0.55;;;21.30;68.10;;;;;;5063667;28;20189;-43
2022/10/04 06:37:04;;;;;;;0.45;0.45;;;21.20;68.00;;;;;;5085373;28;20040;-43
2022/10/04 06:39:45;;;;;;;0.65;0.55;;;21.20;68.10;;;;;;5068473;28;20036;-43
2022/10/04 06:42:47;;;;;;;0.85;0.60;;;21.30;68.00;;;;;;5069495;28;20048;-43
2022/10/04 06:45:31;;;;;;;0.52;0.40;;;21.20;68.00;;;;;;5021398;28;20075;-43
2022/10/04 06:48:15;;;;;;;0.75;0.40;;;21.20;68.00;;;;;;5009282;28;20037;-43
2022/10/04 06:50:43;;;;;;;1.10;0.40;;;21.20;68.00;;;;;;5021197;28;20053;-43
2022/10/04 06:53:23;;;;;;;0.38;0.30;;;21.20;68.00;;;;;;5021118;28;20053;-43
2022/10/04 06:56:13;;;;;;;0.30;0.30;;;21.20;68.00;;;;;;5023162;28;20414;-43
2022/10/04 06:59:20;;;;;;;0.40;0.40;;;21.20;67.90;;;;;;5023583;28;20085;-43
2022/10/04 07:01:50;;;;;;;0.60;0.30;;;21.20;67.90;;;;;;4955853;28;20106;-43
2022/10/04 07:04:29;;;;;;;0.40;0.40;;;21.20;67.90;;;;;;4959696;28;20049;-42
2022/10/04 07:07:34;;;;;;;1.77;0.30;;;21.20;67.80;;;;;;4961353;28;20054;-43
2022/10/04 07:10:23;;;;;;;0.75;0.25;;;21.20;68.60;;;;;;4951543;28;20510;-42
2022/10/04 07:13:17;;;;;;;0.30;0.30;;;21.20;67.70;;;;;;4944215;28;20042;-43
2022/10/04 07:16:00;;;;;;;0.50;0.50;;;21.20;67.70;;;;;;4948131;28;20541;-43
2022/10/04 07:18:43;;;;;;;0.38;0.30;;;21.20;67.70;;;;;;4947468;28;20046;-42
2022/10/04 07:21:11;;;;;;;0.60;0.30;;;21.20;67.70;;;;;;4974902;28;20062;-43
2022/10/04 07:23:49;;;;;;;0.40;0.40;;;21.20;67.60;;;;;;4967926;28;20059;-44
2022/10/04 07:26:44;;;;;;;1.33;0.20;;;21.20;67.60;;;;;;4968741;28;20500;-44
2022/10/04 07:29:21;;;;;;;0.50;0.28;;;21.20;67.50;;;;;;4969527;28;20536;-43
2022/10/04 07:32:12;;;;;;;0.82;0.30;;;21.20;67.60;;;;;;4956753;28;20131;-43
2022/10/04 07:34:45;;;;;;;0.63;0.20;;;21.20;67.50;;;;;;4962864;28;20051;-42
2022/10/04 07:37:12;;;;;;;0.60;0.30;;;21.20;67.40;;;;;;4970169;28;20046;-43
2022/10/04 07:39:53;;;;;;;0.40;0.38;;;21.30;67.30;;;;;;5050414;28;20058;-43
2022/10/04 07:42:27;;;;;;;1.15;0.50;;;21.20;67.30;;;;;;5057594;28;20041;-42
2022/10/04 07:45:24;;;;;;;0.75;0.20;;;21.20;67.40;;;;;;5041778;28;20048;-44
2022/10/04 07:47:50;;;;;;;0.38;0.38;;;21.20;67.40;;;;;;5042457;28;20086;-43
2022/10/04 07:50:25;;;;;;;0.75;0.30;;;21.20;67.30;;;;;;5054606;28;20048;-43
2022/10/04 07:53:14;;;;;;;0.38;0.30;;;21.10;67.30;;;;;;5063557;28;20051;-44
2022/10/04 07:56:07;;;;;;;0.20;0.20;;;21.20;67.30;;;;;;5045966;28;20067;-44
2022/10/04 07:59:10;;;;;;;0.38;0.20;;;21.20;67.20;;;;;;5058883;28;20061;-43
2022/10/04 08:01:43;;;;;;;0.70;0.45;;;21.20;67.10;;;;;;5045369;28;20091;-43
2022/10/04 08:04:08;;;;;;;0.43;0.30;;;21.20;66.90;;;;;;5057134;28;20069;-43
2022/10/04 08:06:55;;;;;;;0.32;0.30;;;21.20;67.00;;;;;;5048500;28;20451;-42
2022/10/04 08:09:42;;;;;;;0.38;0.22;;;21.20;67.00;;;;;;5028262;28;20101;-41
2022/10/04 08:12:41;;;;;;;3.45;0.30;;;21.20;66.90;;;;;;5063243;28;20095;-42
2022/10/04 08:15:12;;;;;;;0.30;0.30;;;21.20;66.90;;;;;;5039431;28;20033;-43
2022/10/04 08:18:03;;;;;;;0.20;0.20;;;21.20;66.90;;;;;;5048354;28;22310;-43
2022/10/04 08:20:35;;;;;;;0.50;0.50;;;21.20;66.90;;;;;;5051596;28;20068;-44
2022/10/04 08:23:07;;;;;;;0.30;0.30;;;21.30;66.90;;;;;;5054939;28;20044;-43
2022/10/04 08:25:57;;;;;;;0.10;0.10;;;21.20;66.70;;;;;;5056842;28;20040;-43
2022/10/04 08:31:29;;;;;;;1.20;0.30;;;21.20;66.90;;;;;;5048817;28;20047;-47
2022/10/04 08:34:10;;;;;;;0.57;0.20;;;21.20;66.90;;;;;;5055012;28;20056;-43
2022/10/04 08:36:52;;;;;;;0.20;0.20;;;21.20;66.80;;;;;;5064071;28;20071;-43
2022/10/04 08:39:30;;;;;;;0.95;0.30;;;21.20;66.80;;;;;;5042519;28;20056;-43
2022/10/04 08:42:40;;;;;;;1.65;0.20;;;21.20;66.90;;;;;;5034945;28;20037;-43
2022/10/04 08:45:25;;;;;;;0.30;0.30;;;21.20;66.80;;;;;;5032013;28;20037;-43
2022/10/04 08:48:02;;;;;;;;;;;21.10;66.90;;;;;;5033039;28;20042;-43
2022/10/04 08:50:41;;;;;;;0.73;0.20;;;21.20;66.80;;;;;;5034598;28;19917;-42
2022/10/04 08:53:41;;;;;;;0.17;0.17;;;21.20;66.80;;;;;;5033715;28;20415;-43
2022/10/04 08:56:19;;;;;;;0.40;0.30;;;21.10;66.80;;;;;;5038877;28;20048;-43
2022/10/04 08:58:52;;;;;;;0.10;0.10;;;21.20;66.60;;;;;;5031185;28;20056;-44
2022/10/04 09:01:45;;;;;;;0.28;0.28;;;21.20;66.70;;;;;;5035502;28;20038;-43
2022/10/04 09:04:31;;;;;;;0.30;0.22;;;21.20;66.60;;;;;;5035071;28;20488;-43
2022/10/04 09:07:15;;;;;;;0.13;0.13;;;21.20;66.60;;;;;;5079951;28;20046;-43
2022/10/04 09:10:10;;;;;;;0.20;0.20;;;21.20;66.50;;;;;;5062649;28;20424;-43
2022/10/04 09:12:55;;;;;;;0.20;0.20;;;21.20;66.50;;;;;;5061283;28;20036;-43
2022/10/04 09:15:33;;;;;;;0.28;0.20;;;21.20;66.50;;;;;;5061098;28;20054;-43
2022/10/04 09:18:21;;;;;;;1.00;0.40;;;21.10;66.60;;;;;;5058057;28;20048;-43
2022/10/04 09:20:50;;;;;;;0.10;0.10;;;21.10;66.60;;;;;;5062526;28;20045;-42
2022/10/04 09:23:29;;;;;;;0.20;0.20;;;21.10;66.60;;;;;;5049898;28;20040;-43
2022/10/04 09:26:00;;;;;;;0.20;0.20;;;21.20;66.60;;;;;;5074906;28;20175;-43
2022/10/04 09:28:26;;;;;;;1.17;0.10;;;21.20;66.50;;;;;;5061018;28;20044;-42
2022/10/04 09:31:07;;;;;;;0.30;0.30;;;21.10;66.50;;;;;;5044421;28;20055;-43
2022/10/04 09:33:51;;;;;;;0.20;0.20;;;21.20;66.50;;;;;;5044662;28;20052;-42
2022/10/04 09:36:22;;;;;;;0.30;0.30;;;21.20;66.50;;;;;;5064179;28;20508;-43
2022/10/04 09:38:53;;;;;;;0.10;0.10;;;21.20;66.30;;;;;;5048935;28;20053;-43
2022/10/04 09:41:41;;;;;;;0.13;0.13;;;21.20;66.40;;;;;;5066310;28;20076;-43
2022/10/04 09:44:18;;;;;;;0.85;0.20;;;21.20;66.50;;;;;;5063499;28;20045;-58
2022/10/04 09:46:53;;;;;;;0.10;0.10;;;21.20;66.60;;;;;;5070640;28;20036;-59
2022/10/04 09:49:36;;;;;;;0.10;0.10;;;21.20;66.60;;;;;;5042575;28;20029;-51
2022/10/04 09:52:24;;;;;;;0.30;0.25;;;21.20;66.70;;;;;;5036753;28;20046;-47
2022/10/04 09:55:10;;;;;;;0.22;0.22;;;21.10;66.70;;;;;;5060498;28;20470;-57
2022/10/04 09:57:40;;;;;;;0.20;0.20;;;21.10;66.70;;;;;;5063330;28;20040;-56
2022/10/04 10:00:13;;;;;;;0.20;0.20;;;21.10;66.60;;;;;;5063080;28;20036;-55
2022/10/04 10:02:45;;;;;;;0.95;0.20;;;21.10;66.60;;;;;;5046912;28;20049;-58
2022/10/04 10:05:36;;;;;;;0.13;0.13;;;21.20;66.70;;;;;;5065605;28;20517;-48
2022/10/04 10:08:35;;;;;;;0.10;0.10;;;21.10;66.60;;;;;;5060631;28;20033;-59
2022/10/04 10:14:26;;;;;;;0.20;0.15;;;21.20;66.60;;;;;;5055685;28;20126;-55
2022/10/04 10:16:59;;;;;;;0.10;0.10;;;21.10;66.70;;;;;;5062558;28;20066;-45
2022/10/04 10:19:49;;;;;;;0.10;0.10;;;21.20;66.60;;;;;;5062736;28;20586;-49
2022/10/04 10:23:05;;;;;;;0.25;0.25;;;21.20;66.40;;;;;;5064689;28;20112;-56
2022/10/04 10:25:37;;;;;;;0.43;0.28;;;21.10;66.60;;;;;;4999980;28;20046;-54
2022/10/04 10:28:09;;;;;;;0.10;0.10;;;21.10;66.60;;;;;;4999524;28;20033;-54
2022/10/04 10:30:49;;;;;;;0.10;0.10;;;21.20;67.30;;;;;;4980636;28;20042;-51
2022/10/04 10:33:37;;;;;;;0.10;0.10;;;21.20;66.50;;;;;;4981502;28;20191;-43
2022/10/04 10:36:39;;;;;;;0.10;0.10;;;21.20;66.50;;;;;;4983476;28;20117;-54
2022/10/04 10:39:30;;;;;;;0.30;0.10;;;21.10;66.40;;;;;;4984036;28;20050;-45
2022/10/04 10:42:17;;;;;;;0.10;0.10;;;21.20;66.50;;;;;;4996585;28;20465;-56
2022/10/04 10:44:55;;;;;;;0.10;0.05;;;21.20;66.40;;;;;;4986543;28;20038;-55
2022/10/04 10:47:20;;;;;;;0.10;0.10;;;21.20;66.30;;;;;;4996014;28;20614;-53
2022/10/04 10:50:12;;;;;;;0.10;0.10;;;21.20;66.30;;;;;;5000877;28;20050;-59
2022/10/04 10:53:08;;;;;;;0.15;0.10;;;21.20;66.40;;;;;;4977964;28;20510;-58
2022/10/04 10:56:07;;;;;;;0.13;0.13;;;21.20;66.40;;;;;;4997396;28;20061;-52
2022/10/04 10:58:48;;;;;;;0.10;0.10;;;21.20;66.30;;;;;;4983842;28;20092;-53
2022/10/04 11:02:04;;;;;;;0.35;0.10;;;21.20;66.40;;;;;;5030797;28;20032;-48
2022/10/04 11:04:54;;;;;;;0.20;0.10;;;21.20;67.10;;;;;;5003691;28;20052;-54
2022/10/04 11:07:33;;;;;;;0.05;0.05;;;21.20;66.20;;;;;;5003268;28;20045;-42
2022/10/04 11:10:10;;;;;;;0.10;0.10;;;21.20;66.10;;;;;;5005326;28;20077;-53
2022/10/04 11:12:38;;;;;;;0.10;0.10;;;21.20;66.30;;;;;;4987927;28;20048;-57
2022/10/04 11:15:27;;;;;;;0.10;0.10;;;21.20;66.30;;;;;;5006208;28;20121;-40
2022/10/04 11:18:24;;;;;;;0.10;0.10;;;21.20;66.30;;;;;;5002201;28;20432;-39
2022/10/04 11:21:17;;;;;;;0.00;0.00;;;21.20;66.20;;;;;;4985356;28;20077;-44
2022/10/04 11:24:13;;;;;;;0.10;0.10;;;21.20;66.20;;;;;;4989494;28;20072;-38
2022/10/04 11:27:12;;;;;;;0.00;0.00;;;21.20;66.30;;;;;;5004559;28;20089;-51
2022/10/04 11:30:05;;;;;;;0.05;0.05;;;21.20;66.20;;;;;;4983900;28;20092;-50
2022/10/04 11:32:48;;;;;;;0.03;0.03;;;21.20;66.40;;;;;;4991057;28;20129;-39
2022/10/04 11:35:53;;;;;;;0.00;0.00;;;21.20;66.30;;;;;;5004235;28;20104;-49
2022/10/04 11:38:22;;;;;;;0.32;0.10;;;21.20;66.40;;;;;;5004839;28;20056;-44
2022/10/04 11:41:12;;;;;;;0.10;0.00;;;21.20;66.30;;;;;;5047724;28;20089;-54
2022/10/04 11:44:19;;;;;;;0.10;0.10;;;21.20;67.00;;;;;;5051206;28;20546;-49
2022/10/04 11:47:05;;;;;;;0.10;0.10;;;21.20;66.90;;;;;;5042164;28;20055;-59
2022/10/04 11:49:34;;;;;;;0.35;0.10;;;21.20;66.70;;;;;;5061308;28;20044;-39
2022/10/04 11:52:36;;;;;;;0.30;0.10;;;21.10;66.60;;;;;;5046069;28;20576;-52
2022/10/04 11:55:36;;;;;;;0.10;0.10;;;21.20;66.80;;;;;;5065928;28;20048;-60
2022/10/04 11:58:12;;;;;;;0.13;0.10;;;21.10;66.80;;;;;;4959008;28;20047;-51
2022/10/04 12:00:46;;;;;;;0.10;0.10;;;21.20;66.90;;;;;;4980752;28;20031;-48
2022/10/04 12:03:30;;;;;;;0.10;0.10;;;21.20;67.50;;;;;;4965442;28;20042;-57
2022/10/04 12:06:07;;;;;;;0.55;0.10;;;21.20;66.80;;;;;;4964045;28;20061;-56
2022/10/04 12:09:04;;;;;;;0.15;0.15;;;21.20;66.70;;;;;;4963761;28;20058;-57
2022/10/04 12:14:32;;;;;;;0.68;0.10;;;21.20;66.60;;;;;;4954310;28;20058;-59
2022/10/04 12:17:07;;;;;;;0.90;0.13;;;21.20;66.60;;;;;;4986747;28;20462;-54
2022/10/04 12:19:51;;;;;;;0.20;0.10;;;21.20;66.90;;;;;;4983984;28;20112;-39
2022/10/04 12:22:45;;;;;;;0.20;0.17;;;21.20;66.60;;;;;;4964847;28;20042;-51
2022/10/04 12:25:47;;;;;;;0.10;0.10;;;21.20;66.60;;;;;;4958183;28;20603;-58
2022/10/04 12:28:13;;;;;;;0.52;0.20;;;21.20;66.90;;;;;;4984511;28;20030;-53
2022/10/04 12:30:45;;;;;;;0.30;0.30;;;21.20;67.30;;;;;;4965487;28;20042;-58
2022/10/04 12:33:14;;;;;;;0.28;0.25;;;21.20;67.00;;;;;;4980429;28;20054;-54
2022/10/04 12:35:54;;;;;;;0.40;0.10;;;21.20;67.20;;;;;;5055258;28;20049;-51
2022/10/04 12:38:42;;;;;;;0.47;0.17;;;21.20;67.20;;;;;;5069703;28;20048;-49
2022/10/04 12:41:37;;;;;;;0.10;0.10;;;21.20;67.20;;;;;;5051102;28;20060;-52
2022/10/04 12:44:16;;;;;;;0.38;0.10;;;21.20;67.30;;;;;;5042067;28;20056;-58
2022/10/04 12:46:48;;;;;;;0.10;0.10;;;21.20;67.30;;;;;;5045524;28;20049;-48
2022/10/04 12:49:26;;;;;;;0.47;0.47;;;21.20;68.20;;;;;;5059131;28;20427;-47
2022/10/04 12:51:53;;;;;;;0.52;0.10;;;21.20;67.30;;;;;;5043510;28;20094;-39
2022/10/04 12:54:40;;;;;;;0.52;0.10;;;21.20;67.30;;;;;;5040987;28;20570;-54
2022/10/04 12:57:12;;;;;;;0.10;0.05;;;21.20;67.30;;;;;;5032630;28;20048;-51
2022/10/04 12:59:58;;;;;;;0.10;0.10;;;21.20;67.40;;;;;;5031720;28;20041;-55
2022/10/04 13:03:01;;;;;;;0.10;0.10;;;21.20;67.30;;;;;;5047312;28;20068;-59
2022/10/04 13:05:48;;;;;;;0.25;0.17;;;21.20;67.30;;;;;;5033986;28;20088;-53
2022/10/04 13:08:58;;;;;;;0.05;0.05;;;21.20;68.30;;;;;;5046765;28;20524;-52
2022/10/04 13:11:38;;;;;;;0.10;0.10;;;21.20;68.30;;;;;;5032833;28;20037;-55
2022/10/04 13:14:15;;;;;;;0.20;0.10;;;21.20;67.30;;;;;;5048132;28;20064;-53
2022/10/04 13:17:23;;;;;;;0.10;0.10;;;21.30;67.10;;;;;;5054829;28;20068;-41
2022/10/04 13:19:54;;;;;;;0.20;0.10;;;21.20;67.20;;;;;;5053351;28;20036;-53
2022/10/04 13:22:39;;;;;;;1.33;0.10;;;21.20;67.30;;;;;;5059744;28;20040;-42
2022/10/04 13:25:44;;;;;;;0.10;0.10;;;21.20;67.20;;;;;;5047578;28;20040;-46
2022/10/04 13:28:30;;;;;;;0.25;0.08;;;21.20;67.50;;;;;;5038134;28;20048;-50
2022/10/04 13:31:22;;;;;;;0.10;0.10;;;21.20;67.30;;;;;;5045793;28;20060;-51
2022/10/04 13:34:11;;;;;;;0.20;0.10;;;21.20;67.30;;;;;;5049285;28;20123;-59
2022/10/04 13:36:49;;;;;;;0.10;0.08;;;21.20;67.40;;;;;;5067886;28;20044;-36
2022/10/04 13:39:36;;;;;;;0.10;0.10;;;21.20;67.30;;;;;;5038368;28;20060;-47
2022/10/04 13:42:17;;;;;;;0.10;0.10;;;21.20;67.30;;;;;;5033169;28;20052;-50
2022/10/04 13:45:01;;;;;;;0.10;0.00;;;21.20;67.30;;;;;;5054038;28;20041;-45
2022/10/04 13:47:45;;;;;;;;;;;21.20;67.20;;;;;;5057612;28;20149;-56
2022/10/04 13:50:14;;;;;;;0.10;0.10;;;21.20;67.30;;;;;;5049146;28;20287;-53
2022/10/04 13:58:58;;;;;;;0.10;0.10;;;21.20;67.40;;;;;;5042425;28;20047;-47
2022/10/04 14:02:13;;;;;;;0.20;0.20;;;21.10;67.50;;;;;;5063807;28;20061;-51
2022/10/04 14:04:57;;;;;;;0.47;0.10;;;21.10;67.60;;;;;;5037917;28;20713;-27